This is the latest recevied weather packets stored in our database for station/object WX8ASH-13. If no packets are shown the sender has not sent any weather packets the latest 10 day(s).
| Time | Temp. | Humidity | Pressure | Rain* | Wind** | Luminosity | Snow |
|---|---|---|---|---|---|---|---|
| 1777839020 | 15° C | 48% | 1014.8 hPa | 0 mm | - | - | - |
| 1777838720 | 15° C | 48% | 1014.9 hPa | 0 mm | - | - | - |
| 1777838420 | 15° C | 47% | 1015 hPa | 0 mm | - | - | - |
| 1777838119 | 15° C | 47% | 1015.1 hPa | 0 mm | - | - | - |
| 1777837820 | 15° C | 48% | 1015.1 hPa | 0 mm | - | - | - |
| 1777837519 | 15° C | 47% | 1015.1 hPa | 0 mm | - | - | - |
| 1777837219 | 15° C | 47% | 1015.2 hPa | 0 mm | - | - | - |
| 1777836919 | 15.56° C | 45% | 1015.3 hPa | 0 mm | - | - | - |
| 1777836619 | 16.11° C | 46% | 1015.3 hPa | 0 mm | - | - | - |
| 1777836318 | 16.11° C | 45% | 1015.4 hPa | 0 mm | - | - | - |
| 1777836018 | -1.11° C | 49% | 1015.4 hPa | 0 mm | - | - | - |
| 1777834843 | 16.11° C | 47% | 1015.8 hPa | 0 mm | - | - | - |
| 1777834542 | 15.56° C | 45% | 1016 hPa | 0 mm | - | - | - |
| 1777834243 | 15.56° C | 45% | 1016 hPa | 0 mm | - | - | - |
| 1777833942 | 15.56° C | 45% | 1016 hPa | 0 mm | - | - | - |
| 1777833642 | 15° C | 50% | 1016.1 hPa | 0 mm | - | - | - |
| 1777833342 | 15° C | 48% | 1016.1 hPa | 0 mm | - | - | - |
| 1777833042 | 15° C | 48% | 1016.2 hPa | 0 mm | - | - | - |
| 1777832742 | 15° C | 47% | 1016.2 hPa | 0 mm | - | - | - |
| 1777832442 | 15° C | 47% | 1016.3 hPa | 0 mm | - | - | - |
| 1777832141 | 15° C | 47% | 1016.3 hPa | 0 mm | - | - | - |
| 1777831841 | 15° C | 45% | 1016.4 hPa | 0 mm | - | - | - |
| 1777831541 | 15° C | 47% | 1016.4 hPa | 0 mm | - | - | - |
| 1777831241 | 15° C | 46% | 1016.5 hPa | 0 mm | - | - | - |
| 1777830941 | 15° C | 47% | 1016.5 hPa | 0 mm | - | - | - |
* Rain latest hour (hover to see other rain measurements)
** Current wind speed in m/s (hover to see current wind gust speed)